createdAt,value
2019-02-15T00:07:55.995Z,23.7
2019-02-15T00:17:55.201Z,22.9
2019-02-15T00:27:54.404Z,23.2
2019-02-15T00:37:53.610Z,23.3
2019-02-15T00:47:52.816Z,23.8
2019-02-15T00:57:52.026Z,24.6
2019-02-15T01:07:51.229Z,24.3
2019-02-15T01:17:50.433Z,23.6
2019-02-15T01:21:58.107Z,23.2
2019-02-15T01:31:57.259Z,22.8
2019-02-15T01:41:56.467Z,23.1
2019-02-15T01:51:55.679Z,23.1
2019-02-15T02:01:54.925Z,23.3
2019-02-15T02:11:54.085Z,23.6
2019-02-15T02:21:53.284Z,24.4
2019-02-15T02:31:52.575Z,24.1
2019-02-15T02:41:51.861Z,23.3
2019-02-15T02:51:51.151Z,22.8
2019-02-15T03:01:50.461Z,23
2019-02-15T03:11:49.729Z,23.3
2019-02-15T03:21:48.972Z,24.3
2019-02-15T03:30:11.654Z,24.8
2019-02-15T03:40:10.851Z,24.6
2019-02-15T03:50:10.073Z,23.8
2019-02-15T04:00:09.274Z,22.6
2019-02-15T04:10:08.552Z,23.2
2019-02-15T04:20:07.691Z,23.3
2019-02-15T04:30:06.908Z,23.6
2019-02-15T04:40:06.199Z,24.7
2019-02-15T04:50:05.487Z,23.9
2019-02-15T05:00:04.776Z,22.6
2019-02-15T05:10:04.065Z,23.2
2019-02-15T05:20:03.361Z,23.5
2019-02-15T05:30:02.614Z,23.6
2019-02-15T05:40:01.819Z,24.3
2019-02-15T05:50:01.028Z,24
2019-02-15T05:58:30.853Z,23.8
2019-02-15T06:08:31.312Z,22.4
2019-02-15T06:18:29.277Z,23.1
2019-02-15T06:28:28.493Z,23.9
2019-02-15T06:38:34.497Z,23.1
2019-02-15T06:48:26.905Z,23.2
2019-02-15T06:58:26.122Z,23.1
2019-02-15T07:08:25.412Z,23.3
2019-02-15T07:18:24.702Z,23.2
2019-02-15T07:28:23.995Z,23.1
2019-02-15T07:38:23.287Z,22.9
2019-02-15T07:48:22.577Z,22.9
2019-02-15T07:58:21.881Z,22.8
2019-02-15T08:08:21.032Z,22.8
2019-02-15T08:18:20.242Z,22.8
2019-02-15T08:28:19.446Z,22.7
2019-02-15T08:38:18.703Z,22.9
2019-02-15T08:48:17.859Z,23
2019-02-15T08:59:46.854Z,23.1
2019-02-15T09:09:46.057Z,23.3
2019-02-15T09:19:45.265Z,23
2019-02-15T09:29:44.469Z,22.7
2019-02-15T09:39:43.677Z,22.4
2019-02-15T09:49:44.649Z,22.9
2019-02-15T09:59:42.091Z,23.2
2019-02-15T10:09:41.384Z,22.8
2019-02-15T10:19:40.675Z,22.9
2019-02-15T10:29:39.971Z,22.9
2019-02-15T10:39:39.259Z,23.2
2019-02-15T10:49:38.549Z,23
2019-02-15T10:59:37.798Z,22.8
2019-02-15T11:09:37.015Z,22.7
2019-02-15T11:19:36.221Z,22.8
2019-02-15T11:29:35.432Z,22.8
2019-02-15T11:39:34.649Z,22.5
2019-02-15T11:49:33.855Z,22.4
2019-02-15T11:59:33.066Z,23.3
2019-02-15T12:09:32.273Z,23.3
2019-02-15T12:16:06.300Z,22.9
2019-02-15T12:26:05.406Z,22.6
2019-02-15T12:36:04.613Z,22.5
2019-02-15T12:46:03.818Z,23.1
2019-02-15T12:56:03.036Z,23.3
2019-02-15T13:06:02.230Z,22.8
2019-02-15T13:16:01.437Z,22.9
2019-02-15T13:26:08.160Z,23
2019-02-15T13:36:00.013Z,22.8
2019-02-15T13:45:59.301Z,22.8
2019-02-15T13:55:58.589Z,22.9
2019-02-15T14:05:57.877Z,22.9
2019-02-15T14:15:57.121Z,22.8
2019-02-15T14:25:56.325Z,22.8
2019-02-15T14:35:55.529Z,22.7
2019-02-15T14:45:54.789Z,22.7
2019-02-15T14:55:53.995Z,22.5
2019-02-15T15:05:54.885Z,22.3
2019-02-15T15:15:52.408Z,22.9
2019-02-15T15:25:51.566Z,23.1
2019-02-15T15:35:50.776Z,22.6
2019-02-15T15:45:49.982Z,22.5
2019-02-15T15:55:49.192Z,22.5
2019-02-15T16:05:48.449Z,23.1
2019-02-15T16:15:47.616Z,23.6
2019-02-15T16:25:46.824Z,23.3
2019-02-15T16:35:46.034Z,23.4
2019-02-15T16:45:45.245Z,23.4
2019-02-15T16:55:44.466Z,23.5
2019-02-15T17:05:07.962Z,23.3
2019-02-15T17:15:07.177Z,23.4
2019-02-15T17:25:06.398Z,23.6
2019-02-15T17:35:05.610Z,24.1
2019-02-15T17:45:04.836Z,23.4
2019-02-15T17:55:04.042Z,23.2
2019-02-15T18:05:03.263Z,23.1
2019-02-15T18:15:02.567Z,23.1
2019-02-15T18:25:01.867Z,23.6
2019-02-15T18:35:01.170Z,24.3
2019-02-15T18:45:00.502Z,23.1
2019-02-15T18:48:47.050Z,22.9
2019-02-15T18:58:46.153Z,23.1
2019-02-15T19:08:45.402Z,23.1
2019-02-15T19:18:44.594Z,23.3
2019-02-15T19:28:43.814Z,24
2019-02-15T19:38:43.029Z,23.6
2019-02-15T19:48:42.260Z,22.8
2019-02-15T19:58:43.731Z,22.7
2019-02-15T20:08:40.854Z,22.8
2019-02-15T20:18:40.258Z,23.3
2019-02-15T20:28:39.455Z,23.6
2019-02-15T20:38:38.765Z,24.4
2019-02-15T20:48:38.035Z,23.4
2019-02-15T20:58:37.233Z,22.9
2019-02-15T21:08:02.411Z,22.9
2019-02-15T21:18:01.627Z,22.9
2019-02-15T21:28:00.839Z,23.1
2019-02-15T21:37:33.427Z,23.3
2019-02-15T21:47:32.643Z,23.2
2019-02-15T21:57:31.851Z,23.1
2019-02-15T22:07:31.062Z,23.1
2019-02-15T22:17:30.273Z,23
2019-02-15T22:27:29.482Z,23
2019-02-15T22:37:28.703Z,23
2019-02-15T22:47:27.997Z,23
2019-02-15T22:57:27.341Z,23
2019-02-15T23:07:26.583Z,22.9
2019-02-15T23:17:25.876Z,22.9
2019-02-15T23:27:25.166Z,22.9
2019-02-15T23:37:24.417Z,23
2019-02-15T23:47:23.626Z,23
2019-02-15T23:57:22.833Z,23.1
